CheckWX is a tool to help pilots better visualize weather data.  It is not intended as a substitute for an official pre-flight weather briefing.

19:04:39 UTC

KJRB METAR
Downtown Manhattan / Wall St Heliport
New York, New York, USA
Current

1 hour ago

KJRB 221756Z AUTO 06007G18KT 10SM CLR 07/M03 A3035 RMK AO2 SLP278 60001 T00671028 10067 20039 58004
Observed
Feb-22 @ 17:56 UTC
Wind
  • 060° at 7 KTS
  • Gusting to KTS
Visibility
10 SM
Flight Rules
VFR
Cloud Levels
  • Clear skies
Temperature
C / 45°F
Dewpoint
-3°C / 27°F
Humidity
49%
Altimeter
30.35" Hg
Pressure
1027.8 hPa
Previous

2 hours ago

KJRB 221656Z AUTO 26005KT 10SM CLR 06/M04 A3038 RMK AO2 PK WND 30028/1622 SLP288 T00611044
Observed
Feb-22 @ 16:56 UTC
Wind
  • 260° at 5 KTS
Visibility
10 SM
Flight Rules
VFR
Cloud Levels
  • Clear skies
Temperature
C / 43°F
Dewpoint
-4°C / 25°F
Humidity
49%
Altimeter
30.38" Hg
Pressure
1028.8 hPa
Previous

3 hours ago

KJRB 221556Z AUTO VRB06KT 10SM CLR 06/M05 A3040 RMK AO2 SLP294 T00611050
Observed
Feb-22 @ 15:56 UTC
Wind
  • Variable at 6 KTS
Visibility
10 SM
Flight Rules
VFR
Cloud Levels
  • Clear skies
Temperature
C / 43°F
Dewpoint
-5°C / 23°F
Humidity
46%
Altimeter
30.4" Hg
Pressure
1029.4 hPa